Terminal Aerodrome Forecast
Issued by NWS

Home | Current Version | Previous Version | Text Only | Print | Product List | Glossary On
Versions: 1 2 3 4 5 6 7 8 9 10 11 12 13 14 15 16 17 18 19 20 21 22 23
000
FTUS45 KFGZ 211132
TAFGCN
TAF
KGCN 211132Z 2112/2212 27011KT P6SM VCFG SCT015 OVC022
      TEMPO 2112/2115 3SM -SHSN OVC015
     FM211500 28010KT P6SM FEW020 SCT045
     FM211800 32012G22KT P6SM FEW045
     FM220100 VRB03KT P6SM FEW250=

USA.gov is the U.S. government's official web portal to all federal, state and local government web resources and services.